sensor_id;sensor_type;location;lat;lon;timestamp;temperature;humidity
3069;DHT22;1545;51.728;8.796;2023-02-28T00:02:17;-0.70;87.50
3069;DHT22;1545;51.728;8.796;2023-02-28T00:04:43;-0.70;87.20
3069;DHT22;1545;51.728;8.796;2023-02-28T00:07:09;-0.70;87.20
3069;DHT22;1545;51.728;8.796;2023-02-28T00:09:34;-0.70;87.30
3069;DHT22;1545;51.728;8.796;2023-02-28T00:12:00;-0.60;87.60
3069;DHT22;1545;51.728;8.796;2023-02-28T00:14:30;-0.60;87.40
3069;DHT22;1545;51.728;8.796;2023-02-28T00:16:55;-0.60;87.70
3069;DHT22;1545;51.728;8.796;2023-02-28T00:19:21;-0.60;87.70
3069;DHT22;1545;51.728;8.796;2023-02-28T00:21:46;-0.60;87.80
3069;DHT22;1545;51.728;8.796;2023-02-28T00:24:12;-0.50;87.70
3069;DHT22;1545;51.728;8.796;2023-02-28T00:26:37;-0.50;87.70
3069;DHT22;1545;51.728;8.796;2023-02-28T00:29:03;-0.40;84.90
3069;DHT22;1545;51.728;8.796;2023-02-28T00:31:28;-0.40;84.90
3069;DHT22;1545;51.728;8.796;2023-02-28T00:33:54;-0.60;87.00
3069;DHT22;1545;51.728;8.796;2023-02-28T00:36:19;-0.80;88.70
3069;DHT22;1545;51.728;8.796;2023-02-28T00:38:44;-0.90;88.80
3069;DHT22;1545;51.728;8.796;2023-02-28T00:41:10;-1.10;89.10
3069;DHT22;1545;51.728;8.796;2023-02-28T00:43:37;-1.30;89.30
3069;DHT22;1545;51.728;8.796;2023-02-28T00:46:04;-1.40;89.40
3069;DHT22;1545;51.728;8.796;2023-02-28T00:48:30;-1.40;89.30
3069;DHT22;1545;51.728;8.796;2023-02-28T00:50:55;-1.50;89.20
3069;DHT22;1545;51.728;8.796;2023-02-28T00:53:21;-1.50;89.40
3069;DHT22;1545;51.728;8.796;2023-02-28T00:55:48;-1.60;89.10
3069;DHT22;1545;51.728;8.796;2023-02-28T00:58:13;-1.60;89.00
3069;DHT22;1545;51.728;8.796;2023-02-28T01:00:39;-1.70;89.00
3069;DHT22;1545;51.728;8.796;2023-02-28T01:03:04;-1.80;89.00
3069;DHT22;1545;51.728;8.796;2023-02-28T01:05:33;-1.80;89.30
3069;DHT22;1545;51.728;8.796;2023-02-28T01:07:58;-1.80;89.50
3069;DHT22;1545;51.728;8.796;2023-02-28T01:10:25;-1.90;89.20
3069;DHT22;1545;51.728;8.796;2023-02-28T01:12:50;-2.00;89.20
3069;DHT22;1545;51.728;8.796;2023-02-28T01:15:16;-2.10;89.60
3069;DHT22;1545;51.728;8.796;2023-02-28T01:17:41;-2.10;89.80
3069;DHT22;1545;51.728;8.796;2023-02-28T01:20:07;-2.10;89.90
3069;DHT22;1545;51.728;8.796;2023-02-28T01:22:34;-2.20;89.90
3069;DHT22;1545;51.728;8.796;2023-02-28T01:25:00;-2.20;90.40
3069;DHT22;1545;51.728;8.796;2023-02-28T01:27:25;-2.20;90.60
3069;DHT22;1545;51.728;8.796;2023-02-28T01:29:51;-2.20;90.80
3069;DHT22;1545;51.728;8.796;2023-02-28T01:32:17;-2.30;90.50
3069;DHT22;1545;51.728;8.796;2023-02-28T01:34:42;-2.40;90.70
3069;DHT22;1545;51.728;8.796;2023-02-28T01:37:08;-2.50;91.00
3069;DHT22;1545;51.728;8.796;2023-02-28T01:39:33;-2.60;91.70
3069;DHT22;1545;51.728;8.796;2023-02-28T01:41:59;-2.60;92.00
3069;DHT22;1545;51.728;8.796;2023-02-28T01:45:01;-2.60;91.50
3069;DHT22;1545;51.728;8.796;2023-02-28T01:47:32;-2.70;90.50
3069;DHT22;1545;51.728;8.796;2023-02-28T01:49:58;-2.90;91.10
3069;DHT22;1545;51.728;8.796;2023-02-28T01:52:26;-2.90;91.40
3069;DHT22;1545;51.728;8.796;2023-02-28T01:54:55;-2.70;90.90
3069;DHT22;1545;51.728;8.796;2023-02-28T01:57:25;-2.60;90.20
3069;DHT22;1545;51.728;8.796;2023-02-28T02:00:00;-2.50;89.50
3069;DHT22;1545;51.728;8.796;2023-02-28T02:02:27;-2.70;89.80
3069;DHT22;1545;51.728;8.796;2023-02-28T02:05:17;-2.90;90.40
3069;DHT22;1545;51.728;8.796;2023-02-28T02:07:45;-3.00;90.80
3069;DHT22;1545;51.728;8.796;2023-02-28T02:10:18;-2.80;90.80
3069;DHT22;1545;51.728;8.796;2023-02-28T02:13:07;-2.80;90.30
3069;DHT22;1545;51.728;8.796;2023-02-28T02:15:40;-3.10;90.90
3069;DHT22;1545;51.728;8.796;2023-02-28T02:18:22;-3.20;91.80
3069;DHT22;1545;51.728;8.796;2023-02-28T02:30:00;-3.30;91.90
3069;DHT22;1545;51.728;8.796;2023-02-28T02:38:24;-3.00;91.40
3069;DHT22;1545;51.728;8.796;2023-02-28T02:41:13;-3.00;91.10
3069;DHT22;1545;51.728;8.796;2023-02-28T02:43:45;-3.20;91.00
3069;DHT22;1545;51.728;8.796;2023-02-28T02:46:23;-3.30;92.30
3069;DHT22;1545;51.728;8.796;2023-02-28T02:48:50;-3.40;92.50
3069;DHT22;1545;51.728;8.796;2023-02-28T02:51:20;-3.50;92.40
3069;DHT22;1545;51.728;8.796;2023-02-28T02:53:51;-3.60;92.60
3069;DHT22;1545;51.728;8.796;2023-02-28T02:56:20;-3.30;92.40
3069;DHT22;1545;51.728;8.796;2023-02-28T02:58:49;-3.20;91.50
3069;DHT22;1545;51.728;8.796;2023-02-28T03:01:19;-3.10;91.10
3069;DHT22;1545;51.728;8.796;2023-02-28T03:03:59;-3.00;90.50
3069;DHT22;1545;51.728;8.796;2023-02-28T03:06:26;-3.00;90.20
3069;DHT22;1545;51.728;8.796;2023-02-28T03:08:52;-3.00;90.00
3069;DHT22;1545;51.728;8.796;2023-02-28T03:11:18;-3.00;89.60
3069;DHT22;1545;51.728;8.796;2023-02-28T03:16:29;-2.80;88.40
3069;DHT22;1545;51.728;8.796;2023-02-28T03:19:23;-2.80;88.60
3069;DHT22;1545;51.728;8.796;2023-02-28T03:33:14;-2.60;87.40
3069;DHT22;1545;51.728;8.796;2023-02-28T03:36:06;-2.70;87.10
3069;DHT22;1545;51.728;8.796;2023-02-28T03:38:39;-2.70;87.30
3069;DHT22;1545;51.728;8.796;2023-02-28T03:41:16;-2.70;87.40
3069;DHT22;1545;51.728;8.796;2023-02-28T03:43:49;-2.70;87.40
3069;DHT22;1545;51.728;8.796;2023-02-28T03:46:19;-2.80;87.30
3069;DHT22;1545;51.728;8.796;2023-02-28T03:48:56;-2.90;87.60
3069;DHT22;1545;51.728;8.796;2023-02-28T03:51:25;-3.00;87.70
3069;DHT22;1545;51.728;8.796;2023-02-28T03:53:53;-3.10;87.70
3069;DHT22;1545;51.728;8.796;2023-02-28T03:56:33;-3.10;88.00
3069;DHT22;1545;51.728;8.796;2023-02-28T04:01:45;-3.10;88.30
3069;DHT22;1545;51.728;8.796;2023-02-28T04:04:12;-3.10;88.10
3069;DHT22;1545;51.728;8.796;2023-02-28T04:06:38;-3.10;88.00
3069;DHT22;1545;51.728;8.796;2023-02-28T04:09:06;-3.10;88.00
3069;DHT22;1545;51.728;8.796;2023-02-28T04:11:40;-2.90;87.70
3069;DHT22;1545;51.728;8.796;2023-02-28T04:14:07;-3.00;87.40
3069;DHT22;1545;51.728;8.796;2023-02-28T04:16:35;-3.10;87.30
3069;DHT22;1545;51.728;8.796;2023-02-28T04:19:06;-3.20;87.40
3069;DHT22;1545;51.728;8.796;2023-02-28T04:21:34;-3.30;87.60
3069;DHT22;1545;51.728;8.796;2023-02-28T04:23:59;-3.40;87.80
3069;DHT22;1545;51.728;8.796;2023-02-28T04:26:33;-3.40;88.10
3069;DHT22;1545;51.728;8.796;2023-02-28T04:29:00;-3.50;88.50
3069;DHT22;1545;51.728;8.796;2023-02-28T04:31:26;-3.60;88.80
3069;DHT22;1545;51.728;8.796;2023-02-28T04:33:52;-3.60;89.00
3069;DHT22;1545;51.728;8.796;2023-02-28T04:36:18;-3.70;89.20
3069;DHT22;1545;51.728;8.796;2023-02-28T04:38:44;-3.70;89.00
3069;DHT22;1545;51.728;8.796;2023-02-28T04:41:11;-3.60;89.30
3069;DHT22;1545;51.728;8.796;2023-02-28T04:43:36;-3.70;89.30
3069;DHT22;1545;51.728;8.796;2023-02-28T04:46:03;-3.70;89.60
3069;DHT22;1545;51.728;8.796;2023-02-28T04:48:31;-3.70;89.90
3069;DHT22;1545;51.728;8.796;2023-02-28T04:51:05;-3.80;90.30
3069;DHT22;1545;51.728;8.796;2023-02-28T04:53:31;-3.80;91.20
3069;DHT22;1545;51.728;8.796;2023-02-28T04:55:57;-3.70;91.50
3069;DHT22;1545;51.728;8.796;2023-02-28T04:58:23;-3.40;91.70
3069;DHT22;1545;51.728;8.796;2023-02-28T05:00:49;-3.30;91.20
3069;DHT22;1545;51.728;8.796;2023-02-28T05:03:15;-3.00;90.60
3069;DHT22;1545;51.728;8.796;2023-02-28T05:05:41;-2.70;89.40
3069;DHT22;1545;51.728;8.796;2023-02-28T05:08:06;-2.50;88.50
3069;DHT22;1545;51.728;8.796;2023-02-28T05:10:32;-2.40;88.00
3069;DHT22;1545;51.728;8.796;2023-02-28T05:12:58;-2.30;87.90
3069;DHT22;1545;51.728;8.796;2023-02-28T05:15:23;-2.10;87.80
3069;DHT22;1545;51.728;8.796;2023-02-28T05:17:49;-2.10;87.50
3069;DHT22;1545;51.728;8.796;2023-02-28T05:20:15;-2.00;87.30
3069;DHT22;1545;51.728;8.796;2023-02-28T05:22:41;-1.90;87.10
3069;DHT22;1545;51.728;8.796;2023-02-28T05:25:08;-1.90;86.90
3069;DHT22;1545;51.728;8.796;2023-02-28T05:27:36;-1.80;86.80
3069;DHT22;1545;51.728;8.796;2023-02-28T05:30:02;-1.70;87.50
3069;DHT22;1545;51.728;8.796;2023-02-28T05:32:28;-1.70;87.80
3069;DHT22;1545;51.728;8.796;2023-02-28T05:34:54;-1.60;86.90
3069;DHT22;1545;51.728;8.796;2023-02-28T05:37:19;-1.70;87.50
3069;DHT22;1545;51.728;8.796;2023-02-28T05:39:45;-1.80;89.10
3069;DHT22;1545;51.728;8.796;2023-02-28T05:42:10;-1.90;89.40
3069;DHT22;1545;51.728;8.796;2023-02-28T05:44:36;-2.00;89.40
3069;DHT22;1545;51.728;8.796;2023-02-28T05:47:02;-2.10;88.40
3069;DHT22;1545;51.728;8.796;2023-02-28T05:49:27;-2.10;87.70
3069;DHT22;1545;51.728;8.796;2023-02-28T05:51:53;-2.20;87.50
3069;DHT22;1545;51.728;8.796;2023-02-28T05:54:18;-2.20;87.40
3069;DHT22;1545;51.728;8.796;2023-02-28T05:56:43;-2.30;87.40
3069;DHT22;1545;51.728;8.796;2023-02-28T05:59:14;-2.40;87.30
3069;DHT22;1545;51.728;8.796;2023-02-28T06:01:44;-2.40;87.00
3069;DHT22;1545;51.728;8.796;2023-02-28T06:04:14;-2.40;87.00
3069;DHT22;1545;51.728;8.796;2023-02-28T06:06:48;-2.40;86.70
3069;DHT22;1545;51.728;8.796;2023-02-28T06:09:15;-2.50;86.50
3069;DHT22;1545;51.728;8.796;2023-02-28T06:11:41;-2.50;86.50
3069;DHT22;1545;51.728;8.796;2023-02-28T06:14:16;-2.50;86.60
3069;DHT22;1545;51.728;8.796;2023-02-28T06:16:42;-2.60;86.70
3069;DHT22;1545;51.728;8.796;2023-02-28T06:19:08;-2.60;86.80
3069;DHT22;1545;51.728;8.796;2023-02-28T06:21:34;-2.60;87.00
3069;DHT22;1545;51.728;8.796;2023-02-28T06:24:00;-2.70;87.10
3069;DHT22;1545;51.728;8.796;2023-02-28T06:26:26;-2.70;87.00
3069;DHT22;1545;51.728;8.796;2023-02-28T06:28:52;-2.70;86.90
3069;DHT22;1545;51.728;8.796;2023-02-28T06:31:18;-2.70;87.00
3069;DHT22;1545;51.728;8.796;2023-02-28T06:33:44;-2.70;86.90
3069;DHT22;1545;51.728;8.796;2023-02-28T06:36:11;-2.70;86.90
3069;DHT22;1545;51.728;8.796;2023-02-28T06:38:38;-2.80;87.00
3069;DHT22;1545;51.728;8.796;2023-02-28T06:41:05;-2.70;87.20
3069;DHT22;1545;51.728;8.796;2023-02-28T06:43:34;-2.70;87.30
3069;DHT22;1545;51.728;8.796;2023-02-28T06:46:01;-2.70;87.40
3069;DHT22;1545;51.728;8.796;2023-02-28T06:48:27;-2.60;87.10
3069;DHT22;1545;51.728;8.796;2023-02-28T06:51:02;-2.50;87.00
3069;DHT22;1545;51.728;8.796;2023-02-28T06:53:27;-2.40;87.10
3069;DHT22;1545;51.728;8.796;2023-02-28T06:55:53;-2.30;87.20
3069;DHT22;1545;51.728;8.796;2023-02-28T06:58:18;-2.30;87.10
3069;DHT22;1545;51.728;8.796;2023-02-28T07:00:45;-2.30;86.90
3069;DHT22;1545;51.728;8.796;2023-02-28T07:03:12;-2.20;86.40
3069;DHT22;1545;51.728;8.796;2023-02-28T07:05:38;-2.00;85.80
3069;DHT22;1545;51.728;8.796;2023-02-28T07:08:05;-1.90;85.60
3069;DHT22;1545;51.728;8.796;2023-02-28T07:10:32;-1.80;85.80
3069;DHT22;1545;51.728;8.796;2023-02-28T07:12:58;-1.80;85.80
3069;DHT22;1545;51.728;8.796;2023-02-28T07:15:23;-1.70;85.70
3069;DHT22;1545;51.728;8.796;2023-02-28T07:17:49;-1.60;86.10
3069;DHT22;1545;51.728;8.796;2023-02-28T07:20:15;-1.60;86.30
3069;DHT22;1545;51.728;8.796;2023-02-28T07:22:41;-1.50;86.40
3069;DHT22;1545;51.728;8.796;2023-02-28T07:25:07;-1.50;86.50
3069;DHT22;1545;51.728;8.796;2023-02-28T07:27:33;-1.40;86.50
3069;DHT22;1545;51.728;8.796;2023-02-28T07:29:59;-1.40;86.40
3069;DHT22;1545;51.728;8.796;2023-02-28T07:32:27;-1.20;85.50
3069;DHT22;1545;51.728;8.796;2023-02-28T07:34:53;-1.20;85.20
3069;DHT22;1545;51.728;8.796;2023-02-28T07:37:19;-1.20;85.10
3069;DHT22;1545;51.728;8.796;2023-02-28T07:39:45;-1.20;85.10
3069;DHT22;1545;51.728;8.796;2023-02-28T07:42:11;-1.10;84.70
3069;DHT22;1545;51.728;8.796;2023-02-28T07:44:38;-1.20;84.90
3069;DHT22;1545;51.728;8.796;2023-02-28T07:47:10;-1.20;85.20
3069;DHT22;1545;51.728;8.796;2023-02-28T07:49:38;-1.30;85.30
3069;DHT22;1545;51.728;8.796;2023-02-28T07:52:05;-1.20;85.50
3069;DHT22;1545;51.728;8.796;2023-02-28T07:54:31;-1.10;84.90
3069;DHT22;1545;51.728;8.796;2023-02-28T07:56:57;-1.00;85.10
3069;DHT22;1545;51.728;8.796;2023-02-28T07:59:22;-1.00;85.30
3069;DHT22;1545;51.728;8.796;2023-02-28T08:01:48;-1.00;86.10
3069;DHT22;1545;51.728;8.796;2023-02-28T08:04:16;-0.90;86.30
3069;DHT22;1545;51.728;8.796;2023-02-28T08:06:42;-0.60;85.40
3069;DHT22;1545;51.728;8.796;2023-02-28T08:09:07;-0.40;83.80
3069;DHT22;1545;51.728;8.796;2023-02-28T08:11:33;-0.10;82.70
3069;DHT22;1545;51.728;8.796;2023-02-28T08:13:58;0.00;81.80
3069;DHT22;1545;51.728;8.796;2023-02-28T08:16:24;0.10;82.20
3069;DHT22;1545;51.728;8.796;2023-02-28T08:18:51;0.30;82.10
3069;DHT22;1545;51.728;8.796;2023-02-28T08:21:17;0.30;83.00
3069;DHT22;1545;51.728;8.796;2023-02-28T08:23:43;0.40;83.50
3069;DHT22;1545;51.728;8.796;2023-02-28T08:26:08;0.40;82.30
3069;DHT22;1545;51.728;8.796;2023-02-28T08:28:34;0.60;81.70
3069;DHT22;1545;51.728;8.796;2023-02-28T08:31:00;0.70;81.00
3069;DHT22;1545;51.728;8.796;2023-02-28T08:33:26;0.80;81.80
3069;DHT22;1545;51.728;8.796;2023-02-28T08:35:56;0.90;82.10
3069;DHT22;1545;51.728;8.796;2023-02-28T08:38:22;0.90;80.80
3069;DHT22;1545;51.728;8.796;2023-02-28T08:40:48;0.90;80.80
3069;DHT22;1545;51.728;8.796;2023-02-28T08:43:13;1.00;82.50
3069;DHT22;1545;51.728;8.796;2023-02-28T08:45:39;1.10;81.10
3069;DHT22;1545;51.728;8.796;2023-02-28T08:48:04;1.30;81.10
3069;DHT22;1545;51.728;8.796;2023-02-28T08:50:30;1.40;80.50
3069;DHT22;1545;51.728;8.796;2023-02-28T08:52:55;1.50;80.20
3069;DHT22;1545;51.728;8.796;2023-02-28T08:55:21;1.60;79.90
3069;DHT22;1545;51.728;8.796;2023-02-28T08:57:46;1.70;80.20
3069;DHT22;1545;51.728;8.796;2023-02-28T09:00:13;1.70;79.40
3069;DHT22;1545;51.728;8.796;2023-02-28T09:02:40;1.80;79.90
3069;DHT22;1545;51.728;8.796;2023-02-28T09:05:06;1.90;79.50
3069;DHT22;1545;51.728;8.796;2023-02-28T09:07:31;2.00;79.30
3069;DHT22;1545;51.728;8.796;2023-02-28T09:09:57;2.00;79.20
3069;DHT22;1545;51.728;8.796;2023-02-28T09:12:27;2.00;79.60
3069;DHT22;1545;51.728;8.796;2023-02-28T09:14:57;2.20;80.10
3069;DHT22;1545;51.728;8.796;2023-02-28T09:17:22;2.20;80.10
3069;DHT22;1545;51.728;8.796;2023-02-28T09:19:48;2.40;79.80
3069;DHT22;1545;51.728;8.796;2023-02-28T09:22:14;2.40;78.50
3069;DHT22;1545;51.728;8.796;2023-02-28T09:24:40;2.50;78.90
3069;DHT22;1545;51.728;8.796;2023-02-28T09:27:05;2.70;78.80
3069;DHT22;1545;51.728;8.796;2023-02-28T09:29:32;2.70;79.80
3069;DHT22;1545;51.728;8.796;2023-02-28T09:31:58;2.80;79.30
3069;DHT22;1545;51.728;8.796;2023-02-28T09:34:27;2.70;79.50
3069;DHT22;1545;51.728;8.796;2023-02-28T09:36:53;2.60;78.60
3069;DHT22;1545;51.728;8.796;2023-02-28T09:39:21;2.60;77.80
3069;DHT22;1545;51.728;8.796;2023-02-28T09:41:49;2.60;78.90
3069;DHT22;1545;51.728;8.796;2023-02-28T09:44:45;2.60;78.70
3069;DHT22;1545;51.728;8.796;2023-02-28T09:47:18;2.60;78.10
3069;DHT22;1545;51.728;8.796;2023-02-28T09:49:47;2.80;78.50
3069;DHT22;1545;51.728;8.796;2023-02-28T09:52:20;2.90;77.80
3069;DHT22;1545;51.728;8.796;2023-02-28T09:54:46;2.90;78.20
3069;DHT22;1545;51.728;8.796;2023-02-28T09:57:41;2.70;77.40
3069;DHT22;1545;51.728;8.796;2023-02-28T10:00:18;2.80;78.30
3069;DHT22;1545;51.728;8.796;2023-02-28T10:05:36;2.90;78.10
3069;DHT22;1545;51.728;8.796;2023-02-28T10:08:19;3.00;78.20
3069;DHT22;1545;51.728;8.796;2023-02-28T10:10:53;3.20;78.00
3069;DHT22;1545;51.728;8.796;2023-02-28T10:15:48;3.40;78.40
3069;DHT22;1545;51.728;8.796;2023-02-28T10:18:25;3.50;78.20
3069;DHT22;1545;51.728;8.796;2023-02-28T10:20:53;3.40;79.00
3069;DHT22;1545;51.728;8.796;2023-02-28T10:23:25;3.30;76.80
3069;DHT22;1545;51.728;8.796;2023-02-28T10:26:05;3.30;77.80
3069;DHT22;1545;51.728;8.796;2023-02-28T10:28:35;3.20;78.70
3069;DHT22;1545;51.728;8.796;2023-02-28T10:31:01;2.90;79.40
3069;DHT22;1545;51.728;8.796;2023-02-28T10:33:32;3.00;77.60
3069;DHT22;1545;51.728;8.796;2023-02-28T10:36:00;3.10;76.40
3069;DHT22;1545;51.728;8.796;2023-02-28T10:38:36;3.00;77.90
3069;DHT22;1545;51.728;8.796;2023-02-28T10:41:08;3.00;77.60
3069;DHT22;1545;51.728;8.796;2023-02-28T10:43:34;3.20;79.00
3069;DHT22;1545;51.728;8.796;2023-02-28T10:51:09;3.10;78.10
3069;DHT22;1545;51.728;8.796;2023-02-28T10:53:48;3.60;79.60
3069;DHT22;1545;51.728;8.796;2023-02-28T10:59:26;3.20;79.00
3069;DHT22;1545;51.728;8.796;2023-02-28T11:01:52;3.30;78.50
3069;DHT22;1545;51.728;8.796;2023-02-28T11:06:57;3.10;78.40
3069;DHT22;1545;51.728;8.796;2023-02-28T11:09:27;3.00;79.20
3069;DHT22;1545;51.728;8.796;2023-02-28T11:11:55;3.10;80.80
3069;DHT22;1545;51.728;8.796;2023-02-28T11:14:24;3.10;78.90
3069;DHT22;1545;51.728;8.796;2023-02-28T11:16:51;3.40;79.00
3069;DHT22;1545;51.728;8.796;2023-02-28T11:19:27;3.60;77.80
3069;DHT22;1545;51.728;8.796;2023-02-28T11:22:01;3.70;77.50
3069;DHT22;1545;51.728;8.796;2023-02-28T11:24:43;3.90;76.50
3069;DHT22;1545;51.728;8.796;2023-02-28T11:29:58;4.10;75.00
3069;DHT22;1545;51.728;8.796;2023-02-28T11:32:25;4.00;76.20
3069;DHT22;1545;51.728;8.796;2023-02-28T11:37:37;4.10;75.60
3069;DHT22;1545;51.728;8.796;2023-02-28T11:40:12;3.60;75.10
3069;DHT22;1545;51.728;8.796;2023-02-28T11:48:06;3.90;75.80
3069;DHT22;1545;51.728;8.796;2023-02-28T11:53:44;4.30;75.90
3069;DHT22;1545;51.728;8.796;2023-02-28T11:56:25;4.50;78.60
3069;DHT22;1545;51.728;8.796;2023-02-28T12:02:20;4.00;76.70
3069;DHT22;1545;51.728;8.796;2023-02-28T12:05:18;3.90;77.30
3069;DHT22;1545;51.728;8.796;2023-02-28T12:07:55;3.80;76.80
3069;DHT22;1545;51.728;8.796;2023-02-28T12:10:29;3.90;76.70
3069;DHT22;1545;51.728;8.796;2023-02-28T12:13:07;4.00;76.20
3069;DHT22;1545;51.728;8.796;2023-02-28T12:15:48;3.70;76.70
3069;DHT22;1545;51.728;8.796;2023-02-28T12:18:47;4.00;78.40
3069;DHT22;1545;51.728;8.796;2023-02-28T12:24:24;3.90;76.30
3069;DHT22;1545;51.728;8.796;2023-02-28T12:26:46;4.00;75.10
3069;DHT22;1545;51.728;8.796;2023-02-28T12:29:28;4.40;78.00
3069;DHT22;1545;51.728;8.796;2023-02-28T12:32:21;4.50;76.40
3069;DHT22;1545;51.728;8.796;2023-02-28T12:34:50;4.40;77.90
3069;DHT22;1545;51.728;8.796;2023-02-28T12:37:25;4.20;77.50
3069;DHT22;1545;51.728;8.796;2023-02-28T12:39:59;4.10;76.20
3069;DHT22;1545;51.728;8.796;2023-02-28T12:42:36;3.90;75.90
3069;DHT22;1545;51.728;8.796;2023-02-28T12:45:10;3.70;76.60
3069;DHT22;1545;51.728;8.796;2023-02-28T12:47:38;3.90;76.60
3069;DHT22;1545;51.728;8.796;2023-02-28T12:50:09;3.90;77.40
3069;DHT22;1545;51.728;8.796;2023-02-28T12:55:36;4.50;76.40
3069;DHT22;1545;51.728;8.796;2023-02-28T13:01:14;4.30;75.00
3069;DHT22;1545;51.728;8.796;2023-02-28T13:09:30;4.60;75.00
3069;DHT22;1545;51.728;8.796;2023-02-28T13:11:56;4.20;75.30
3069;DHT22;1545;51.728;8.796;2023-02-28T13:19:30;3.90;75.40
3069;DHT22;1545;51.728;8.796;2023-02-28T13:21:57;4.10;74.90
3069;DHT22;1545;51.728;8.796;2023-02-28T13:24:37;4.30;74.00
3069;DHT22;1545;51.728;8.796;2023-02-28T13:29:40;4.50;75.00
3069;DHT22;1545;51.728;8.796;2023-02-28T13:35:13;4.50;72.80
3069;DHT22;1545;51.728;8.796;2023-02-28T13:37:35;4.50;73.20
3069;DHT22;1545;51.728;8.796;2023-02-28T13:40:31;4.60;72.50
3069;DHT22;1545;51.728;8.796;2023-02-28T13:43:02;4.60;70.30
3069;DHT22;1545;51.728;8.796;2023-02-28T13:45:29;4.70;72.30
3069;DHT22;1545;51.728;8.796;2023-02-28T13:48:16;4.70;71.60
3069;DHT22;1545;51.728;8.796;2023-02-28T13:50:43;4.70;71.30
3069;DHT22;1545;51.728;8.796;2023-02-28T13:56:05;4.80;72.00
3069;DHT22;1545;51.728;8.796;2023-02-28T13:59:16;4.80;72.80
3069;DHT22;1545;51.728;8.796;2023-02-28T14:01:53;4.70;72.10
3069;DHT22;1545;51.728;8.796;2023-02-28T14:07:17;4.80;73.80
3069;DHT22;1545;51.728;8.796;2023-02-28T14:09:51;4.80;72.20
3069;DHT22;1545;51.728;8.796;2023-02-28T14:12:58;4.80;72.70
3069;DHT22;1545;51.728;8.796;2023-02-28T14:18:25;4.40;71.10
3069;DHT22;1545;51.728;8.796;2023-02-28T14:20:57;4.10;72.70
3069;DHT22;1545;51.728;8.796;2023-02-28T14:23:26;4.40;73.20
3069;DHT22;1545;51.728;8.796;2023-02-28T14:29:14;4.70;70.30
3069;DHT22;1545;51.728;8.796;2023-02-28T14:32:01;4.60;71.10
3069;DHT22;1545;51.728;8.796;2023-02-28T14:34:40;4.60;71.40
3069;DHT22;1545;51.728;8.796;2023-02-28T14:37:19;4.60;71.80
3069;DHT22;1545;51.728;8.796;2023-02-28T14:39:46;4.60;70.10
3069;DHT22;1545;51.728;8.796;2023-02-28T14:42:34;4.70;72.30
3069;DHT22;1545;51.728;8.796;2023-02-28T14:45:01;4.60;71.90
3069;DHT22;1545;51.728;8.796;2023-02-28T14:47:35;4.60;75.10
3069;DHT22;1545;51.728;8.796;2023-02-28T14:50:02;4.60;71.20
3069;DHT22;1545;51.728;8.796;2023-02-28T14:52:31;4.60;72.20
3069;DHT22;1545;51.728;8.796;2023-02-28T14:55:00;4.60;71.90
3069;DHT22;1545;51.728;8.796;2023-02-28T14:57:32;4.70;73.80
3069;DHT22;1545;51.728;8.796;2023-02-28T15:00:23;4.70;72.20
3069;DHT22;1545;51.728;8.796;2023-02-28T15:02:48;4.60;71.80
3069;DHT22;1545;51.728;8.796;2023-02-28T15:07:43;4.60;71.90
3069;DHT22;1545;51.728;8.796;2023-02-28T15:10:14;4.70;73.10
3069;DHT22;1545;51.728;8.796;2023-02-28T15:12:41;4.70;72.20
3069;DHT22;1545;51.728;8.796;2023-02-28T15:15:16;4.70;72.00
3069;DHT22;1545;51.728;8.796;2023-02-28T15:17:45;4.60;69.70
3069;DHT22;1545;51.728;8.796;2023-02-28T15:20:13;4.60;70.50
3069;DHT22;1545;51.728;8.796;2023-02-28T15:22:40;4.70;71.10
3069;DHT22;1545;51.728;8.796;2023-02-28T15:25:07;4.70;71.40
3069;DHT22;1545;51.728;8.796;2023-02-28T15:27:34;4.60;70.20
3069;DHT22;1545;51.728;8.796;2023-02-28T15:30:06;4.60;70.40
3069;DHT22;1545;51.728;8.796;2023-02-28T15:32:35;4.60;71.30
3069;DHT22;1545;51.728;8.796;2023-02-28T15:35:20;4.60;72.40
3069;DHT22;1545;51.728;8.796;2023-02-28T15:38:01;4.60;71.40
3069;DHT22;1545;51.728;8.796;2023-02-28T15:40:35;4.50;70.80
3069;DHT22;1545;51.728;8.796;2023-02-28T15:46:13;4.40;72.90
3069;DHT22;1545;51.728;8.796;2023-02-28T15:48:54;4.30;70.50
3069;DHT22;1545;51.728;8.796;2023-02-28T15:51:25;4.30;72.20
3069;DHT22;1545;51.728;8.796;2023-02-28T15:53:59;4.20;72.00
3069;DHT22;1545;51.728;8.796;2023-02-28T15:56:39;4.20;72.00
3069;DHT22;1545;51.728;8.796;2023-02-28T15:59:14;4.10;72.10
3069;DHT22;1545;51.728;8.796;2023-02-28T16:01:41;4.00;71.90
3069;DHT22;1545;51.728;8.796;2023-02-28T16:04:14;4.00;70.70
3069;DHT22;1545;51.728;8.796;2023-02-28T16:06:53;4.00;70.50
3069;DHT22;1545;51.728;8.796;2023-02-28T16:09:25;4.00;70.60
3069;DHT22;1545;51.728;8.796;2023-02-28T16:11:54;3.90;72.40
3069;DHT22;1545;51.728;8.796;2023-02-28T16:14:25;3.90;71.10
3069;DHT22;1545;51.728;8.796;2023-02-28T16:17:26;3.90;71.00
3069;DHT22;1545;51.728;8.796;2023-02-28T16:19:52;3.80;72.10
3069;DHT22;1545;51.728;8.796;2023-02-28T16:22:18;3.80;70.90
3069;DHT22;1545;51.728;8.796;2023-02-28T16:24:44;3.80;70.80
3069;DHT22;1545;51.728;8.796;2023-02-28T16:27:31;3.70;72.20
3069;DHT22;1545;51.728;8.796;2023-02-28T16:29:58;3.60;72.60
3069;DHT22;1545;51.728;8.796;2023-02-28T16:32:23;3.40;74.40
3069;DHT22;1545;51.728;8.796;2023-02-28T16:34:49;3.30;75.50
3069;DHT22;1545;51.728;8.796;2023-02-28T16:37:16;3.20;75.40
3069;DHT22;1545;51.728;8.796;2023-02-28T16:39:42;3.20;74.60
3069;DHT22;1545;51.728;8.796;2023-02-28T16:42:20;3.00;76.30
3069;DHT22;1545;51.728;8.796;2023-02-28T16:44:47;3.10;73.90
3069;DHT22;1545;51.728;8.796;2023-02-28T16:47:12;3.20;73.70
3069;DHT22;1545;51.728;8.796;2023-02-28T16:49:38;3.10;74.50
3069;DHT22;1545;51.728;8.796;2023-02-28T16:52:04;2.80;76.60
3069;DHT22;1545;51.728;8.796;2023-02-28T16:54:31;2.50;78.00
3069;DHT22;1545;51.728;8.796;2023-02-28T16:56:56;2.40;78.00
3069;DHT22;1545;51.728;8.796;2023-02-28T16:59:23;2.30;78.20
3069;DHT22;1545;51.728;8.796;2023-02-28T17:01:50;2.20;78.90
3069;DHT22;1545;51.728;8.796;2023-02-28T17:04:16;2.30;78.00
3069;DHT22;1545;51.728;8.796;2023-02-28T17:06:42;2.00;79.90
3069;DHT22;1545;51.728;8.796;2023-02-28T17:09:15;1.90;79.70
3069;DHT22;1545;51.728;8.796;2023-02-28T17:11:41;2.00;78.90
3069;DHT22;1545;51.728;8.796;2023-02-28T17:14:06;1.90;80.00
3069;DHT22;1545;51.728;8.796;2023-02-28T17:16:33;1.80;80.40
3069;DHT22;1545;51.728;8.796;2023-02-28T17:19:03;1.70;80.80
3069;DHT22;1545;51.728;8.796;2023-02-28T17:21:30;1.70;80.70
3069;DHT22;1545;51.728;8.796;2023-02-28T17:23:56;1.60;81.10
3069;DHT22;1545;51.728;8.796;2023-02-28T17:26:22;1.50;81.60
3069;DHT22;1545;51.728;8.796;2023-02-28T17:28:50;1.30;82.70
3069;DHT22;1545;51.728;8.796;2023-02-28T17:31:16;1.20;82.60
3069;DHT22;1545;51.728;8.796;2023-02-28T17:33:42;1.10;82.70
3069;DHT22;1545;51.728;8.796;2023-02-28T17:36:16;1.00;82.90
3069;DHT22;1545;51.728;8.796;2023-02-28T17:38:42;1.00;83.10
3069;DHT22;1545;51.728;8.796;2023-02-28T17:41:10;0.90;83.40
3069;DHT22;1545;51.728;8.796;2023-02-28T17:43:36;0.90;83.20
3069;DHT22;1545;51.728;8.796;2023-02-28T17:46:01;0.80;83.20
3069;DHT22;1545;51.728;8.796;2023-02-28T17:48:27;0.70;83.10
3069;DHT22;1545;51.728;8.796;2023-02-28T17:50:53;0.60;83.00
3069;DHT22;1545;51.728;8.796;2023-02-28T17:53:19;0.50;83.00
3069;DHT22;1545;51.728;8.796;2023-02-28T17:55:48;0.50;83.20
3069;DHT22;1545;51.728;8.796;2023-02-28T17:58:14;0.50;83.40
3069;DHT22;1545;51.728;8.796;2023-02-28T18:00:39;0.50;83.70
3069;DHT22;1545;51.728;8.796;2023-02-28T18:03:05;0.50;83.70
3069;DHT22;1545;51.728;8.796;2023-02-28T18:05:31;0.50;83.90
3069;DHT22;1545;51.728;8.796;2023-02-28T18:07:57;0.50;83.90
3069;DHT22;1545;51.728;8.796;2023-02-28T18:10:22;0.50;84.10
3069;DHT22;1545;51.728;8.796;2023-02-28T18:12:50;0.50;84.30
3069;DHT22;1545;51.728;8.796;2023-02-28T18:15:18;0.40;84.40